createdAt,value
2022-09-27T00:01:25.115Z,99821.13
2022-09-27T00:03:55.632Z,99819.09
2022-09-27T00:06:31.799Z,99828.84
2022-09-27T00:09:06.271Z,99817.66
2022-09-27T00:11:39.442Z,99828.00
2022-09-27T00:14:12.143Z,99820.31
2022-09-27T00:16:43.463Z,99821.50
2022-09-27T00:19:22.705Z,99822.50
2022-09-27T00:21:53.029Z,99823.97
2022-09-27T00:24:22.504Z,99820.72
2022-09-27T00:26:50.264Z,99823.53
2022-09-27T00:29:19.925Z,99823.34
2022-09-27T00:31:49.708Z,99826.00
2022-09-27T00:34:27.814Z,99828.19
2022-09-27T00:36:56.135Z,99830.44
2022-09-27T00:39:26.087Z,99836.53
2022-09-27T00:41:55.415Z,99830.44
2022-09-27T00:44:25.437Z,99827.38
2022-09-27T00:47:22.414Z,99840.47
2022-09-27T00:50:02.428Z,99834.69
2022-09-27T00:52:45.891Z,99828.19
2022-09-27T00:55:29.386Z,99829.84
2022-09-27T00:58:01.189Z,99826.22
2022-09-27T01:00:31.778Z,99828.94
2022-09-27T01:03:02.830Z,99835.22
2022-09-27T01:05:30.880Z,99845.03
2022-09-27T01:08:00.802Z,99858.50
2022-09-27T01:10:41.262Z,99862.91
2022-09-27T01:13:26.500Z,99861.06
2022-09-27T01:16:28.116Z,99865.63
2022-09-27T01:19:10.958Z,99871.44
2022-09-27T01:22:09.816Z,99873.09
2022-09-27T01:25:30.139Z,99878.94
2022-09-27T01:28:22.052Z,99879.19
2022-09-27T01:31:00.326Z,99890.22
2022-09-27T01:34:11.861Z,99886.91
2022-09-27T01:37:02.126Z,99872.66
2022-09-27T01:39:38.496Z,99881.31
2022-09-27T01:42:40.888Z,99884.00
2022-09-27T01:45:38.358Z,99871.38
2022-09-27T01:48:34.292Z,99881.72
2022-09-27T01:51:24.719Z,99872.97
2022-09-27T01:54:01.838Z,99883.00
2022-09-27T01:56:38.092Z,99875.44
2022-09-27T01:59:18.681Z,99881.03
2022-09-27T02:01:59.803Z,99884.09
2022-09-27T02:04:33.957Z,99880.59
2022-09-27T02:07:18.665Z,99881.38
2022-09-27T02:09:51.895Z,99874.69
2022-09-27T02:12:32.466Z,99868.38
2022-09-27T02:15:12.116Z,99866.19
2022-09-27T02:17:52.227Z,99861.28
2022-09-27T02:20:31.962Z,99848.31
2022-09-27T02:23:04.535Z,99853.13
2022-09-27T02:25:43.569Z,99854.09
2022-09-27T02:28:35.278Z,99862.31
2022-09-27T02:31:02.701Z,99880.44
2022-09-27T02:34:01.705Z,99881.91
2022-09-27T02:36:36.105Z,99890.75
2022-09-27T02:39:03.702Z,99882.69
2022-09-27T02:41:31.243Z,99882.47
2022-09-27T02:44:11.346Z,99878.31
2022-09-27T02:46:52.113Z,99869.44
2022-09-27T02:49:34.319Z,99871.38
2022-09-27T02:52:34.533Z,99875.38
2022-09-27T02:55:21.988Z,99872.69
2022-09-27T02:58:26.642Z,99870.88
2022-09-27T03:01:23.235Z,99869.47
2022-09-27T03:04:32.736Z,99874.78
2022-09-27T03:07:00.897Z,99869.31
2022-09-27T03:09:45.056Z,99871.91
2022-09-27T03:12:21.832Z,99872.75
2022-09-27T03:14:52.701Z,99865.97
2022-09-27T03:17:19.587Z,99867.59
2022-09-27T03:19:47.711Z,99864.88
2022-09-27T03:22:17.261Z,99857.66
2022-09-27T03:24:54.223Z,99860.81
2022-09-27T03:27:21.234Z,99876.56
2022-09-27T03:29:54.720Z,99869.41
2022-09-27T03:32:21.757Z,99871.66
2022-09-27T03:34:55.280Z,99868.59
2022-09-27T03:37:22.932Z,99859.50
2022-09-27T03:39:53.500Z,99863.47
2022-09-27T03:42:27.738Z,99869.19
2022-09-27T03:44:58.249Z,99871.00
2022-09-27T03:47:25.966Z,99866.81
2022-09-27T03:49:52.936Z,99870.16
2022-09-27T03:52:20.666Z,99877.03
2022-09-27T03:54:48.044Z,99872.25
2022-09-27T03:57:15.022Z,99865.50
2022-09-27T03:59:42.111Z,99879.63
2022-09-27T04:02:12.356Z,99878.31
2022-09-27T04:04:42.919Z,99883.34
2022-09-27T04:07:12.748Z,99892.69
2022-09-27T04:09:44.669Z,99890.16
2022-09-27T04:12:12.949Z,99897.72
2022-09-27T04:14:47.181Z,99878.31
2022-09-27T04:17:14.235Z,99876.25
2022-09-27T04:19:41.338Z,99877.16
2022-09-27T04:22:13.619Z,99870.78
2022-09-27T04:24:43.231Z,99865.28
2022-09-27T04:27:10.176Z,99857.03
2022-09-27T04:29:37.614Z,99855.25
2022-09-27T04:32:05.014Z,99845.41
2022-09-27T04:34:51.257Z,99851.34
2022-09-27T04:37:18.232Z,99852.06
2022-09-27T04:39:45.876Z,99855.69
2022-09-27T04:42:12.938Z,99851.72
2022-09-27T04:44:40.098Z,99853.28
2022-09-27T04:47:09.898Z,99850.59
2022-09-27T04:49:39.858Z,99847.88
2022-09-27T04:52:06.849Z,99852.56
2022-09-27T04:54:33.755Z,99841.03
2022-09-27T04:57:00.700Z,99837.94
2022-09-27T04:59:31.333Z,99826.38
2022-09-27T05:02:00.351Z,99836.78
2022-09-27T05:04:30.804Z,99828.56
2022-09-27T05:06:58.835Z,99835.72
2022-09-27T05:09:29.473Z,99833.69
2022-09-27T05:11:59.217Z,99829.88
2022-09-27T05:14:29.613Z,99827.28
2022-09-27T05:17:03.562Z,99822.72
2022-09-27T05:19:37.455Z,99819.53
2022-09-27T05:22:04.620Z,99822.00
2022-09-27T05:24:37.646Z,99833.06
2022-09-27T05:27:08.215Z,99823.47
2022-09-27T05:29:44.560Z,99824.34
2022-09-27T05:32:12.920Z,99820.25
2022-09-27T05:34:39.875Z,99823.53
2022-09-27T05:37:07.369Z,99816.97
2022-09-27T05:39:34.300Z,99824.28
2022-09-27T05:42:08.654Z,99820.09
2022-09-27T05:44:36.185Z,99823.28
2022-09-27T05:47:06.338Z,99830.63
2022-09-27T05:49:42.411Z,99833.97
2022-09-27T05:52:15.150Z,99831.97
2022-09-27T05:54:47.196Z,99840.06
2022-09-27T05:57:14.096Z,99844.31
2022-09-27T05:59:41.361Z,99845.69
2022-09-27T06:02:12.198Z,99850.22
2022-09-27T06:04:42.999Z,99861.88
2022-09-27T06:07:13.357Z,99856.41
2022-09-27T06:09:40.240Z,99857.53
2022-09-27T06:12:13.632Z,99856.25
2022-09-27T06:14:40.686Z,99870.84
2022-09-27T06:17:07.576Z,99863.16
2022-09-27T06:19:35.653Z,99860.50
2022-09-27T06:22:02.800Z,99869.44
2022-09-27T06:24:30.232Z,99875.75
2022-09-27T06:26:59.432Z,99881.66
2022-09-27T06:29:33.176Z,99871.78
2022-09-27T06:32:00.110Z,99863.50
2022-09-27T06:34:27.032Z,99868.44
2022-09-27T06:37:00.417Z,99861.03
2022-09-27T06:39:29.359Z,99867.53
2022-09-27T06:41:58.086Z,99864.53
2022-09-27T06:44:29.072Z,99846.06
2022-09-27T06:47:01.555Z,99857.38
2022-09-27T06:49:29.356Z,99851.81
2022-09-27T06:51:59.490Z,99863.09
2022-09-27T06:54:32.222Z,99852.97
2022-09-27T06:57:02.709Z,99873.69
2022-09-27T06:59:51.815Z,99868.00
2022-09-27T07:02:18.975Z,99864.50
2022-09-27T07:04:45.931Z,99875.09
2022-09-27T07:07:16.662Z,99879.91
2022-09-27T07:09:44.501Z,99870.31
2022-09-27T07:12:13.392Z,99882.94
2022-09-27T07:14:40.454Z,99884.59
2022-09-27T07:17:08.389Z,99892.78
2022-09-27T07:19:35.935Z,99895.50
2022-09-27T07:22:03.023Z,99895.69
2022-09-27T07:24:30.036Z,99895.31
2022-09-27T07:26:57.070Z,99896.50
2022-09-27T07:29:24.015Z,99900.75
2022-09-27T07:31:54.463Z,99901.88
2022-09-27T07:34:21.348Z,99908.75
2022-09-27T07:36:51.269Z,99904.03
2022-09-27T07:39:21.752Z,99906.09
2022-09-27T07:41:48.942Z,99895.97
2022-09-27T07:44:22.709Z,99901.47
2022-09-27T07:46:50.162Z,99903.13
2022-09-27T07:49:18.978Z,99913.50
2022-09-27T07:51:45.868Z,99923.94
2022-09-27T07:54:15.726Z,99919.84
2022-09-27T07:56:43.776Z,99931.75
2022-09-27T07:59:10.736Z,99923.31
2022-09-27T08:01:37.744Z,99909.56
2022-09-27T08:04:05.677Z,99905.78
2022-09-27T08:06:32.678Z,99921.13
2022-09-27T08:09:06.083Z,99911.50
2022-09-27T08:11:33.026Z,99917.34
2022-09-27T08:14:02.386Z,99924.09
2022-09-27T08:16:29.308Z,99923.09
2022-09-27T08:18:56.423Z,99924.34
2022-09-27T08:21:23.378Z,99934.94
2022-09-27T08:23:50.275Z,99928.25
2022-09-27T08:26:17.209Z,99927.50
2022-09-27T08:28:44.148Z,99931.63
2022-09-27T08:31:11.458Z,99930.06
2022-09-27T08:33:41.383Z,99929.56
2022-09-27T08:36:15.042Z,99929.50
2022-09-27T08:38:41.971Z,99929.31
2022-09-27T08:41:15.219Z,99933.38
2022-09-27T08:43:50.044Z,99923.25
2022-09-27T08:46:19.903Z,99925.97
2022-09-27T08:48:54.122Z,99925.81
2022-09-27T08:51:28.281Z,99929.31
2022-09-27T08:54:22.084Z,99924.44
2022-09-27T08:56:51.785Z,99932.59
2022-09-27T08:59:24.959Z,99940.22
2022-09-27T09:01:54.940Z,99928.28
2022-09-27T09:04:42.952Z,99935.56
2022-09-27T09:07:36.492Z,99931.31
2022-09-27T09:10:56.804Z,99933.03
2022-09-27T09:14:20.058Z,99931.66
2022-09-27T09:17:20.352Z,99922.41
2022-09-27T09:20:24.430Z,99926.38
2022-09-27T09:23:18.313Z,99918.72
2022-09-27T09:26:22.220Z,99906.81
2022-09-27T09:28:51.942Z,99905.34
2022-09-27T09:32:13.590Z,99910.78
2022-09-27T09:34:47.381Z,99903.47
2022-09-27T09:37:44.234Z,99913.56
2022-09-27T09:40:34.059Z,99906.78
2022-09-27T09:43:16.464Z,99902.09
2022-09-27T09:45:53.129Z,99896.41
2022-09-27T09:48:39.427Z,99916.03
2022-09-27T09:51:13.392Z,99902.44
2022-09-27T09:53:48.191Z,99910.66
2022-09-27T09:56:20.658Z,99909.50
2022-09-27T09:59:00.555Z,99902.72
2022-09-27T10:01:46.009Z,99897.22
2022-09-27T10:04:25.072Z,99906.72
2022-09-27T10:06:53.102Z,99916.78
2022-09-27T10:09:26.922Z,99914.81
2022-09-27T10:11:54.553Z,99927.03
2022-09-27T10:14:22.918Z,99928.91
2022-09-27T10:16:58.126Z,99932.59
2022-09-27T10:19:37.440Z,99918.50
2022-09-27T10:22:25.083Z,99925.78
2022-09-27T10:25:02.569Z,99919.97
2022-09-27T10:27:46.686Z,99924.63
2022-09-27T10:30:32.871Z,99910.44
2022-09-27T10:33:19.033Z,99912.03
2022-09-27T10:35:51.091Z,99905.13
2022-09-27T10:38:36.600Z,99902.16
2022-09-27T10:41:32.701Z,99887.25
2022-09-27T10:44:25.667Z,99896.19
2022-09-27T10:47:00.472Z,99919.59
2022-09-27T10:49:34.502Z,99918.25
2022-09-27T10:52:15.271Z,99895.97
2022-09-27T10:54:43.048Z,99882.00
2022-09-27T10:57:21.814Z,99883.38
2022-09-27T10:59:56.742Z,99882.34
2022-09-27T11:02:28.622Z,99883.44
2022-09-27T11:05:15.661Z,99882.81
2022-09-27T11:07:55.703Z,99883.72
2022-09-27T11:10:37.580Z,99883.97
2022-09-27T11:13:19.911Z,99882.75
2022-09-27T11:16:14.475Z,99879.56
2022-09-27T11:19:05.061Z,99871.22
2022-09-27T11:22:35.755Z,99870.13
2022-09-27T11:25:53.079Z,99870.38
2022-09-27T11:28:46.663Z,99871.91
2022-09-27T11:32:06.202Z,99875.06
2022-09-27T11:35:24.271Z,99874.53
2022-09-27T11:38:53.213Z,99856.31
2022-09-27T11:41:31.196Z,99851.13
2022-09-27T11:44:41.050Z,99844.94
2022-09-27T11:47:40.872Z,99840.56
2022-09-27T11:50:49.429Z,99857.25
2022-09-27T11:53:45.052Z,99876.13
2022-09-27T11:56:36.021Z,99872.47
2022-09-27T11:59:29.936Z,99867.19
2022-09-27T12:02:31.845Z,99858.66
2022-09-27T12:05:55.195Z,99864.97
2022-09-27T12:08:46.959Z,99854.94
2022-09-27T12:11:46.675Z,99850.41
2022-09-27T12:14:47.584Z,99838.78
2022-09-27T12:17:40.078Z,99845.06
2022-09-27T12:20:19.511Z,99842.41
2022-09-27T12:23:04.176Z,99837.53
2022-09-27T12:25:37.793Z,99821.47
2022-09-27T12:28:14.506Z,99831.59
2022-09-27T12:30:48.694Z,99819.56
2022-09-27T12:33:53.996Z,99824.31
2022-09-27T12:36:27.943Z,99809.69
2022-09-27T12:39:13.357Z,99816.78
2022-09-27T12:41:46.058Z,99814.91
2022-09-27T12:44:13.714Z,99810.47
2022-09-27T12:46:43.461Z,99810.09
2022-09-27T12:50:03.660Z,99808.94
2022-09-27T12:52:36.299Z,99805.97
2022-09-27T12:55:22.747Z,99815.50
2022-09-27T12:58:11.370Z,99808.03
2022-09-27T13:01:35.343Z,99805.06
2022-09-27T13:04:11.073Z,99797.13
2022-09-27T13:07:06.747Z,99788.97
2022-09-27T13:09:55.087Z,99793.16
2022-09-27T13:12:29.386Z,99785.16
2022-09-27T13:15:29.627Z,99778.47
2022-09-27T13:18:01.652Z,99774.97
2022-09-27T13:20:31.277Z,99773.22
2022-09-27T13:23:00.330Z,99768.44
2022-09-27T13:26:07.934Z,99766.34
2022-09-27T13:29:03.527Z,99760.94
2022-09-27T13:31:58.684Z,99759.81
2022-09-27T13:34:50.619Z,99748.94
2022-09-27T13:37:36.871Z,99744.06
2022-09-27T13:40:27.792Z,99745.34
2022-09-27T13:43:15.919Z,99751.22
2022-09-27T13:46:17.063Z,99756.47
2022-09-27T13:48:50.659Z,99768.44
2022-09-27T13:51:53.386Z,99773.94
2022-09-27T13:55:05.304Z,99764.22
2022-09-27T13:57:48.846Z,99755.72
2022-09-27T14:00:28.604Z,99755.03
2022-09-27T14:03:07.092Z,99764.56
2022-09-27T14:05:44.190Z,99754.31
2022-09-27T14:08:37.096Z,99765.03
2022-09-27T14:11:12.427Z,99752.69
2022-09-27T14:13:40.774Z,99749.41
2022-09-27T14:16:08.608Z,99757.34
2022-09-27T14:18:37.696Z,99757.75
2022-09-27T14:21:24.074Z,99752.66
2022-09-27T14:23:51.405Z,99750.56
2022-09-27T14:26:27.566Z,99749.56
2022-09-27T14:28:54.595Z,99765.47
2022-09-27T14:31:24.630Z,99770.91
2022-09-27T14:34:05.231Z,99762.84
2022-09-27T14:36:53.046Z,99775.00
2022-09-27T14:39:33.021Z,99761.44
2022-09-27T14:42:00.928Z,99749.09
2022-09-27T14:44:28.660Z,99753.59
2022-09-27T14:47:21.868Z,99743.88
2022-09-27T14:49:55.099Z,99738.00
2022-09-27T14:52:30.809Z,99728.63
2022-09-27T14:55:05.635Z,99729.16
2022-09-27T14:57:39.989Z,99711.91
2022-09-27T15:00:26.221Z,99707.22
2022-09-27T15:03:06.122Z,99704.63
2022-09-27T15:05:45.485Z,99699.75
2022-09-27T15:08:30.583Z,99706.69
2022-09-27T15:10:58.775Z,99699.13
2022-09-27T15:13:29.565Z,99705.41
2022-09-27T15:15:56.608Z,99690.38
2022-09-27T15:18:41.042Z,99690.84
2022-09-27T15:21:28.496Z,99689.44
2022-09-27T15:23:59.286Z,99684.41
2022-09-27T15:26:44.340Z,99681.88
2022-09-27T15:29:26.553Z,99680.22
2022-09-27T15:32:38.138Z,99682.16
2022-09-27T15:35:09.574Z,99673.97
2022-09-27T15:37:39.834Z,99676.66
2022-09-27T15:40:19.677Z,99682.25
2022-09-27T15:43:01.955Z,99666.97
2022-09-27T15:45:38.987Z,99667.69
2022-09-27T15:48:23.802Z,99660.09
2022-09-27T15:50:50.902Z,99649.66
2022-09-27T15:53:50.281Z,99661.22
2022-09-27T15:56:17.515Z,99665.97
2022-09-27T15:58:44.907Z,99653.47
2022-09-27T16:01:32.846Z,99651.84
2022-09-27T16:04:09.637Z,99653.81
2022-09-27T16:06:36.540Z,99646.16
2022-09-27T16:09:03.493Z,99649.19
2022-09-27T16:11:30.409Z,99637.94
2022-09-27T16:13:57.369Z,99642.19
2022-09-27T16:16:24.347Z,99645.13
2022-09-27T16:19:08.761Z,99647.00
2022-09-27T16:21:47.127Z,99641.50
2022-09-27T16:24:14.523Z,99643.13
2022-09-27T16:26:41.521Z,99640.94
2022-09-27T16:29:17.080Z,99637.31
2022-09-27T16:31:44.500Z,99628.28
2022-09-27T16:34:12.571Z,99626.09
2022-09-27T16:36:40.199Z,99634.47
2022-09-27T16:39:12.805Z,99627.53
2022-09-27T16:41:44.059Z,99628.22
2022-09-27T16:44:17.696Z,99621.03
2022-09-27T16:46:46.380Z,99620.53
2022-09-27T16:49:32.068Z,99619.75
2022-09-27T16:52:02.259Z,99622.75
2022-09-27T16:54:32.979Z,99622.19
2022-09-27T16:57:00.179Z,99626.63
2022-09-27T16:59:27.871Z,99626.31
2022-09-27T17:01:58.631Z,99627.81
2022-09-27T17:04:30.803Z,99626.31
2022-09-27T17:06:58.203Z,99635.63
2022-09-27T17:09:25.452Z,99635.75
2022-09-27T17:11:52.522Z,99630.34
2022-09-27T17:14:23.422Z,99632.72
2022-09-27T17:16:50.992Z,99641.44
2022-09-27T17:19:18.574Z,99630.16
2022-09-27T17:21:46.501Z,99640.88
2022-09-27T17:24:13.647Z,99642.31
2022-09-27T17:26:42.516Z,99643.13
2022-09-27T17:29:13.603Z,99640.25
2022-09-27T17:31:42.343Z,99642.72
2022-09-27T17:34:15.730Z,99649.59
2022-09-27T17:36:48.231Z,99642.72
2022-09-27T17:39:22.344Z,99640.47
2022-09-27T17:41:50.360Z,99641.69
2022-09-27T17:44:18.948Z,99635.81
2022-09-27T17:46:46.494Z,99636.84
2022-09-27T17:49:32.633Z,99627.69
2022-09-27T17:51:59.756Z,99622.22
2022-09-27T17:54:28.205Z,99624.81
2022-09-27T17:56:56.472Z,99623.84
2022-09-27T17:59:27.018Z,99621.00
2022-09-27T18:01:54.099Z,99623.47
2022-09-27T18:04:21.095Z,99618.78
2022-09-27T18:06:48.096Z,99623.25
2022-09-27T18:09:16.927Z,99618.59
2022-09-27T18:11:45.456Z,99615.53
2022-09-27T18:14:12.541Z,99618.41
2022-09-27T18:16:43.137Z,99603.00
2022-09-27T18:19:16.801Z,99606.25
2022-09-27T18:21:44.292Z,99606.31
2022-09-27T18:24:11.799Z,99592.69
2022-09-27T18:26:43.720Z,99593.06
2022-09-27T18:29:14.730Z,99585.13
2022-09-27T18:31:47.426Z,99588.34
2022-09-27T18:34:17.517Z,99591.50
2022-09-27T18:36:44.983Z,99603.81
2022-09-27T18:39:19.309Z,99611.34
2022-09-27T18:41:50.002Z,99615.91
2022-09-27T18:44:18.504Z,99611.16
2022-09-27T18:46:46.102Z,99604.00
2022-09-27T18:49:14.746Z,99605.22
2022-09-27T18:51:44.816Z,99604.69
2022-09-27T18:54:22.668Z,99605.41
2022-09-27T18:56:52.184Z,99617.78
2022-09-27T18:59:21.160Z,99616.22
2022-09-27T19:01:48.305Z,99606.94
2022-09-27T19:04:25.000Z,99614.78
2022-09-27T19:06:56.745Z,99609.56
2022-09-27T19:09:26.355Z,99621.44
2022-09-27T19:11:56.286Z,99620.31
2022-09-27T19:14:23.513Z,99618.56
2022-09-27T19:16:51.035Z,99623.75
2022-09-27T19:19:19.702Z,99622.69
2022-09-27T19:21:47.744Z,99622.13
2022-09-27T19:24:15.851Z,99623.97
2022-09-27T19:26:43.507Z,99625.00
2022-09-27T19:29:14.809Z,99629.28
2022-09-27T19:31:45.536Z,99632.75
2022-09-27T19:34:12.730Z,99637.94
2022-09-27T19:36:39.641Z,99633.78
2022-09-27T19:39:06.811Z,99637.38
2022-09-27T19:41:36.018Z,99638.72
2022-09-27T19:44:06.845Z,99627.34
2022-09-27T19:46:33.855Z,99631.75
2022-09-27T19:49:00.958Z,99625.81
2022-09-27T19:51:28.223Z,99619.97
2022-09-27T19:53:58.250Z,99623.38
2022-09-27T19:56:25.389Z,99623.66
2022-09-27T19:58:52.547Z,99623.47
2022-09-27T20:01:24.564Z,99631.09
2022-09-27T20:03:58.111Z,99644.72
2022-09-27T20:06:27.703Z,99656.66
2022-09-27T20:08:55.704Z,99650.94
2022-09-27T20:11:30.352Z,99636.53
2022-09-27T20:13:59.747Z,99643.44
2022-09-27T20:16:27.921Z,99632.16
2022-09-27T20:18:59.806Z,99622.66
2022-09-27T20:21:34.074Z,99617.66
2022-09-27T20:24:04.989Z,99622.38
2022-09-27T20:26:36.598Z,99629.81
2022-09-27T20:29:08.246Z,99624.84
2022-09-27T20:31:38.191Z,99624.59
2022-09-27T20:34:18.237Z,99613.81
2022-09-27T20:36:48.736Z,99621.19
2022-09-27T20:39:22.997Z,99610.22
2022-09-27T20:41:50.858Z,99604.38
2022-09-27T20:44:20.517Z,99598.13
2022-09-27T20:46:48.319Z,99603.81
2022-09-27T20:49:18.520Z,99600.97
2022-09-27T20:51:51.343Z,99595.50
2022-09-27T20:54:20.695Z,99596.72
2022-09-27T20:56:52.086Z,99595.50
2022-09-27T20:59:22.239Z,99600.56
2022-09-27T21:01:51.397Z,99601.38
2022-09-27T21:04:20.287Z,99597.31
2022-09-27T21:06:52.510Z,99608.88
2022-09-27T21:09:20.030Z,99607.84
2022-09-27T21:11:51.935Z,99610.91
2022-09-27T21:14:19.115Z,99596.88
2022-09-27T21:16:46.397Z,99615.38
2022-09-27T21:19:13.948Z,99615.13
2022-09-27T21:21:40.963Z,99610.06
2022-09-27T21:24:11.620Z,99598.13
2022-09-27T21:26:38.634Z,99604.38
2022-09-27T21:29:08.530Z,99606.41
2022-09-27T21:31:36.385Z,99605.56
2022-09-27T21:34:05.415Z,99606.47
2022-09-27T21:36:38.079Z,99594.19
2022-09-27T21:39:09.062Z,99583.63
2022-09-27T21:41:39.082Z,99579.06
2022-09-27T21:44:07.156Z,99572.22
2022-09-27T21:46:34.710Z,99578.81
2022-09-27T21:49:02.435Z,99585.88
2022-09-27T21:51:44.713Z,99592.66
2022-09-27T21:54:16.355Z,99603.19
2022-09-27T21:56:47.587Z,99610.06
2022-09-27T21:59:15.954Z,99609.47
2022-09-27T22:01:45.498Z,99609.50
2022-09-27T22:04:13.058Z,99613.91
2022-09-27T22:06:40.416Z,99613.13
2022-09-27T22:09:13.468Z,99601.78
2022-09-27T22:11:47.327Z,99606.63
2022-09-27T22:14:22.136Z,99608.06
2022-09-27T22:16:51.927Z,99611.72
2022-09-27T22:19:19.222Z,99602.16
2022-09-27T22:21:46.479Z,99604.19
2022-09-27T22:24:19.634Z,99604.59
2022-09-27T22:26:50.027Z,99603.38
2022-09-27T22:29:20.772Z,99601.38
2022-09-27T22:31:51.355Z,99587.38
2022-09-27T22:34:28.930Z,99571.69
2022-09-27T22:37:00.883Z,99576.38
2022-09-27T22:39:27.924Z,99573.81
2022-09-27T22:41:58.625Z,99567.53
2022-09-27T22:44:25.567Z,99555.97
2022-09-27T22:46:56.148Z,99574.13
2022-09-27T22:49:26.692Z,99563.88
2022-09-27T22:51:56.789Z,99558.44
2022-09-27T22:54:23.712Z,99567.25
2022-09-27T22:56:57.321Z,99562.75
2022-09-27T22:59:26.614Z,99556.47
2022-09-27T23:01:54.593Z,99556.50
2022-09-27T23:04:25.245Z,99546.09
2022-09-27T23:06:52.777Z,99548.25
2022-09-27T23:09:23.007Z,99547.72
2022-09-27T23:11:49.907Z,99553.88
2022-09-27T23:14:26.877Z,99551.97
2022-09-27T23:16:56.824Z,99547.84
2022-09-27T23:19:27.799Z,99549.75
2022-09-27T23:21:54.704Z,99546.28
2022-09-27T23:24:21.815Z,99558.03
2022-09-27T23:27:08.680Z,99554.59
2022-09-27T23:29:35.635Z,99547.25
2022-09-27T23:32:04.265Z,99543.47
2022-09-27T23:34:32.049Z,99541.44
2022-09-27T23:36:59.233Z,99544.28
2022-09-27T23:39:26.253Z,99550.34
2022-09-27T23:41:56.619Z,99547.09
2022-09-27T23:44:24.851Z,99538.00
2022-09-27T23:46:55.073Z,99535.09
2022-09-27T23:49:27.037Z,99530.84
2022-09-27T23:52:01.234Z,99539.34
2022-09-27T23:54:31.645Z,99531.31
2022-09-27T23:56:59.245Z,99533.16
2022-09-27T23:59:38.666Z,99535.28
